»·PEaware :: N52126 KAVX-KSAN

N52126 :: KAVX-KSAN

FLIGHT INFORMATION

Flight Status: Arrived
Operator: Privately registered:
United States
More flights under this callsign
Pilot: James B. (9683)
Aircraft: Unknown
(B58)
More flights by this aircraft type
Origin: KAVX Catalina
United States
Destination: KSAN San Diego Intl-Lindbergh
United States
More flights between these airports :: More routes between these airports
Route: SXC V208 OCN V23 MZB
File this flight plan on PilotEdge
Remarks: I8
Altitude:
(Current/Filed)
5,000ft
Speed:
(Current/Filed)
150kts
Departed: 13-Jan-18 08:57 AM
Arrived: 13-Jan-18 09:56 AM
Distance/Time
Traveled:
74nm/0:59
Distance/Time
To Go:
Arrived

Flight Plot

Page will automatically refresh every two minutes.


Map Options




Map Legend


Flown Route
Filed Route
Departure Airport
Arrival Airport
Navaid (VOR, NDB)
Fix

Horizontal Profiles

Position Reports

Time Latitude Longitude Heading Altitude Ground
Speed
13-Jan-18 08:49 33.403292 -118.415964 45 1603ft 0kts
13-Jan-18 08:50 33.403292 -118.415964 45 1603ft 0kts
13-Jan-18 08:51 33.403292 -118.415964 45 1603ft 0kts
13-Jan-18 08:52 33.403292 -118.415964 45 1603ft 0kts
13-Jan-18 08:53 33.403292 -118.415964 45 1603ft 0kts
13-Jan-18 08:54 33.403292 -118.415964 45 1603ft 0kts
13-Jan-18 08:55 33.403292 -118.415964 45 1603ft 0kts
13-Jan-18 08:56 33.403292 -118.415964 45 1603ft 0kts
13-Jan-18 08:57 33.403292 -118.415964 45 1603ft 0kts
13-Jan-18 08:58 33.403292 -118.415964 45 1603ft 0kts
13-Jan-18 08:59 33.403705 -118.417121 255 1603ft 23kts
13-Jan-18 09:00 33.401865 -118.420393 42 1603ft 6kts
13-Jan-18 09:01 33.402192 -118.419786 55 1603ft 0kts
13-Jan-18 09:02 33.402192 -118.419786 55 1603ft 0kts
13-Jan-18 09:03 33.408803 -118.409596 57 1700ft 81kts
13-Jan-18 09:04 33.411211 -118.382998 133 2424ft 99kts
13-Jan-18 09:05 33.383563 -118.375404 190 2748ft 110kts
13-Jan-18 09:06 33.358150 -118.372719 78 2929ft 95kts
13-Jan-18 09:07 33.364418 -118.340778 96 3041ft 104kts
13-Jan-18 09:08 33.354732 -118.309714 89 3309ft 100kts
13-Jan-18 09:09 33.355078 -118.273330 91 3986ft 127kts
13-Jan-18 09:10 33.355386 -118.227297 84 4302ft 143kts
13-Jan-18 09:11 33.349030 -118.180935 111 4774ft 143kts
13-Jan-18 09:12 33.333157 -118.137154 101 4987ft 137kts
13-Jan-18 09:13 33.325286 -118.093247 98 4979ft 136kts
13-Jan-18 09:14 33.318090 -118.048771 97 4942ft 136kts
13-Jan-18 09:15 33.311576 -118.003687 96 4916ft 138kts
13-Jan-18 09:16 33.305765 -117.957796 95 4924ft 141kts
13-Jan-18 09:17 33.300601 -117.911074 96 5013ft 140kts
13-Jan-18 09:18 33.295834 -117.863933 96 5010ft 145kts
13-Jan-18 09:19 33.290225 -117.815529 97 5005ft 147kts
13-Jan-18 09:20 33.284265 -117.767105 97 5005ft 147kts
13-Jan-18 09:21 33.278254 -117.718791 97 5005ft 147kts
13-Jan-18 09:22 33.272249 -117.670629 97 5005ft 146kts
13-Jan-18 09:23 33.266249 -117.622545 97 5005ft 146kts
13-Jan-18 09:24 33.259724 -117.570373 97 5009ft 174kts
13-Jan-18 09:25 33.252373 -117.511615 97 5004ft 181kts
13-Jan-18 09:26 33.244892 -117.451771 97 5002ft 182kts
13-Jan-18 09:27 33.236969 -117.391902 103 5001ft 183kts
13-Jan-18 09:28 33.207849 -117.347377 162 4994ft 177kts
13-Jan-18 09:29 33.166611 -117.361063 257 4630ft 176kts
13-Jan-18 09:30 33.142186 -117.409995 200 4619ft 186kts
13-Jan-18 09:31 33.102487 -117.384437 126 4782ft 178kts
13-Jan-18 09:32 33.073731 -117.359555 171 5000ft 177kts
13-Jan-18 09:33 33.025855 -117.352993 163 5130ft 185kts
13-Jan-18 09:34 32.981936 -117.330027 150 5000ft 165kts
13-Jan-18 09:35 32.943874 -117.299895 165 4843ft 159kts
13-Jan-18 09:36 32.902963 -117.283600 157 4995ft 155kts
13-Jan-18 09:37 32.863138 -117.264471 157 5070ft 157kts
13-Jan-18 09:38 32.822152 -117.244004 151 5010ft 160kts
13-Jan-18 09:39 32.781956 -117.221150 156 4972ft 161kts
13-Jan-18 09:40 32.752101 -117.189071 93 4919ft 158kts
13-Jan-18 09:41 32.749309 -117.137558 92 4917ft 158kts
13-Jan-18 09:42 32.746454 -117.085878 92 4920ft 157kts
13-Jan-18 09:43 32.743894 -117.042921 92 4924ft 116kts
13-Jan-18 09:44 32.741373 -117.003733 92 4929ft 121kts
13-Jan-18 09:45 32.738828 -116.963404 92 4930ft 123kts
13-Jan-18 09:46 32.736308 -116.922933 92 4933ft 122kts
13-Jan-18 09:47 32.733851 -116.882747 92 4937ft 122kts
13-Jan-18 09:48 32.731434 -116.842558 92 4938ft 121kts
13-Jan-18 09:49 32.728890 -116.802446 101 4937ft 122kts
13-Jan-18 09:50 32.698891 -116.798524 223 4935ft 128kts
13-Jan-18 09:51 32.685272 -116.837678 250 4933ft 130kts
13-Jan-18 09:52 32.674403 -116.878449 255 4893ft 120kts
13-Jan-18 09:53 32.668255 -116.914102 271 4333ft 108kts
13-Jan-18 09:54 32.674869 -116.948573 288 3744ft 107kts
13-Jan-18 09:55 32.682769 -116.980619 288 3636ft 127kts
13-Jan-18 09:56 32.692326 -117.019995 289 2989ft 102kts
13-Jan-18 09:57 32.700550 -117.053677 289 2514ft 107kts
13-Jan-18 09:58 32.708745 -117.087345 289 2079ft 108kts
13-Jan-18 09:59 32.716968 -117.121302 288 1713ft 107kts
13-Jan-18 10:00 32.722190 -117.147657 287 893ft 94kts
13-Jan-18 10:01 32.731039 -117.180094 283 96ft 82kts
13-Jan-18 10:02 32.733638 -117.190659 273 18ft 23kts
13-Jan-18 10:03 32.733187 -117.191580 187 18ft 0kts
13-Jan-18 10:04 32.732322 -117.190583 176 18ft 12kts

Navigation Log

Ident Type
1. KAVX Airport
2. SXC Navaid
3. AVOLS Fix
4. PACIF Fix
5. HUBRD Fix
6. OCN Navaid
7. HURSI Fix
8. CARIF Fix
9. MZB Navaid
10. KSAN Airport